Hammersley Fork, Pennsylvania
Current Conditions -  °F | °C
As of 7:35 AM on Monday 20 Oct 2014 (Local Time) from KN38 Reporting Station
Broken Clouds Broken Clouds  
Wind Chill: 30°   Ceiling: 9500
Heat Index: 36°   Visibility: 10mi
Dew Point: 32°   Wind: 7mph
Humidity: 87%   Direction: 190°S
Pressure: 30"   Gusts: NA
Location:  41.3916°N, 77.7796°W
Report Text: KN38 201135Z AUTO 19006KT 10SM BKN095 BKN120 02/M00 A3000 RMK AO2
Loading
Personal Weather Stations






























Interactive Weather Map
Tropical Storm Tracking
New forecast layout! Learn more

10-Day Weather Forecast

Advertisements
Track Severe Weather on mobile